sensor_id;sensor_type;location;lat;lon;timestamp;pressure;altitude;pressure_sealevel;temperature;humidity
9721;BME280;4899;42.644;23.366;2022-09-09T00:00:25;94501.53;;;16.42;100.00
9721;BME280;4899;42.644;23.366;2022-09-09T00:03:02;94540.66;;;16.65;100.00
9721;BME280;4899;42.644;23.366;2022-09-09T00:05:38;94531.94;;;16.73;100.00
9721;BME280;4899;42.644;23.366;2022-09-09T00:08:15;94524.06;;;16.70;100.00
9721;BME280;4899;42.644;23.366;2022-09-09T00:10:43;94528.09;;;16.67;100.00
9721;BME280;4899;42.644;23.366;2022-09-09T00:13:16;94544.69;;;16.63;100.00
9721;BME280;4899;42.644;23.366;2022-09-09T00:15:55;94544.69;;;16.63;100.00
9721;BME280;4899;42.644;23.366;2022-09-09T00:18:27;94540.88;;;16.60;100.00
9721;BME280;4899;42.644;23.366;2022-09-09T00:21:04;94540.88;;;16.60;100.00
9721;BME280;4899;42.644;23.366;2022-09-09T00:23:34;94532.69;;;16.58;100.00
9721;BME280;4899;42.644;23.366;2022-09-09T00:26:06;94517.94;;;16.62;100.00
9721;BME280;4899;42.644;23.366;2022-09-09T00:28:39;94524.47;;;16.56;100.00
9721;BME280;4899;42.644;23.366;2022-09-09T00:31:13;94511.41;;;16.52;100.00
9721;BME280;4899;42.644;23.366;2022-09-09T00:33:40;94513.25;;;16.52;100.00
9721;BME280;4899;42.644;23.366;2022-09-09T00:36:13;94512.84;;;16.50;100.00
9721;BME280;4899;42.644;23.366;2022-09-09T00:38:45;94496.00;;;16.44;100.00
9721;BME280;4899;42.644;23.366;2022-09-09T00:41:18;94472.66;;;16.28;100.00
9721;BME280;4899;42.644;23.366;2022-09-09T00:43:53;94499.69;;;16.43;100.00
9721;BME280;4899;42.644;23.366;2022-09-09T00:46:41;94491.22;;;16.46;100.00
9721;BME280;4899;42.644;23.366;2022-09-09T00:49:16;94482.53;;;16.38;100.00
9721;BME280;4899;42.644;23.366;2022-09-09T00:51:53;94491.31;;;16.34;100.00
9721;BME280;4899;42.644;23.366;2022-09-09T00:54:30;94491.22;;;16.30;100.00
9721;BME280;4899;42.644;23.366;2022-09-09T00:57:09;94494.09;;;16.25;100.00
9721;BME280;4899;42.644;23.366;2022-09-09T00:59:46;94473.47;;;16.00;100.00
9721;BME280;4899;42.644;23.366;2022-09-09T01:02:18;94489.53;;;16.06;100.00
9721;BME280;4899;42.644;23.366;2022-09-09T01:04:48;94478.84;;;15.92;100.00
9721;BME280;4899;42.644;23.366;2022-09-09T01:07:18;94487.72;;;15.91;100.00
9721;BME280;4899;42.644;23.366;2022-09-09T01:09:51;94493.03;;;15.82;100.00
9721;BME280;4899;42.644;23.366;2022-09-09T01:12:26;94492.44;;;15.73;100.00
9721;BME280;4899;42.644;23.366;2022-09-09T01:15:04;94472.97;;;15.51;100.00
9721;BME280;4899;42.644;23.366;2022-09-09T01:17:44;94501.22;;;15.68;100.00
9721;BME280;4899;42.644;23.366;2022-09-09T01:20:15;94482.66;;;15.54;100.00
9721;BME280;4899;42.644;23.366;2022-09-09T01:22:55;94495.72;;;15.58;100.00
9721;BME280;4899;42.644;23.366;2022-09-09T01:25:30;94506.25;;;15.49;100.00
9721;BME280;4899;42.644;23.366;2022-09-09T01:28:02;94499.53;;;15.48;100.00
9721;BME280;4899;42.644;23.366;2022-09-09T01:30:32;94493.78;;;15.55;100.00
9721;BME280;4899;42.644;23.366;2022-09-09T01:32:59;94487.00;;;15.50;100.00
9721;BME280;4899;42.644;23.366;2022-09-09T01:35:35;94489.34;;;15.55;100.00
9721;BME280;4899;42.644;23.366;2022-09-09T01:38:04;94463.53;;;15.31;100.00
9721;BME280;4899;42.644;23.366;2022-09-09T01:40:32;94500.38;;;15.52;100.00
9721;BME280;4899;42.644;23.366;2022-09-09T01:43:00;94505.66;;;15.56;100.00
9721;BME280;4899;42.644;23.366;2022-09-09T01:45:27;94515.69;;;15.57;100.00
9721;BME280;4899;42.644;23.366;2022-09-09T01:47:54;94515.41;;;15.59;100.00
9721;BME280;4899;42.644;23.366;2022-09-09T01:50:22;94501.97;;;15.41;100.00
9721;BME280;4899;42.644;23.366;2022-09-09T01:52:50;94489.66;;;15.38;100.00
9721;BME280;4899;42.644;23.366;2022-09-09T01:55:24;94518.22;;;15.54;100.00
9721;BME280;4899;42.644;23.366;2022-09-09T01:58:05;94516.38;;;15.54;100.00
9721;BME280;4899;42.644;23.366;2022-09-09T02:00:42;94519.38;;;15.56;100.00
9721;BME280;4899;42.644;23.366;2022-09-09T02:03:18;94523.72;;;15.52;100.00
9721;BME280;4899;42.644;23.366;2022-09-09T02:05:54;94497.03;;;15.24;100.00
9721;BME280;4899;42.644;23.366;2022-09-09T02:08:26;94476.31;;;15.12;100.00
9721;BME280;4899;42.644;23.366;2022-09-09T02:10:58;94486.47;;;15.17;100.00
9721;BME280;4899;42.644;23.366;2022-09-09T02:13:29;94513.09;;;15.42;100.00
9721;BME280;4899;42.644;23.366;2022-09-09T02:15:59;94527.22;;;15.44;100.00
9721;BME280;4899;42.644;23.366;2022-09-09T02:18:30;94480.22;;;15.18;100.00
9721;BME280;4899;42.644;23.366;2022-09-09T02:20:59;94496.56;;;15.34;100.00
9721;BME280;4899;42.644;23.366;2022-09-09T02:23:26;94484.25;;;15.31;100.00
9721;BME280;4899;42.644;23.366;2022-09-09T02:25:56;94489.78;;;15.29;100.00
9721;BME280;4899;42.644;23.366;2022-09-09T02:28:27;94489.22;;;15.36;100.00
9721;BME280;4899;42.644;23.366;2022-09-09T02:30:56;94479.00;;;15.27;100.00
9721;BME280;4899;42.644;23.366;2022-09-09T02:33:27;94478.91;;;15.24;100.00
9721;BME280;4899;42.644;23.366;2022-09-09T02:35:55;94498.63;;;15.28;100.00
9721;BME280;4899;42.644;23.366;2022-09-09T02:38:29;94446.84;;;14.88;100.00
9721;BME280;4899;42.644;23.366;2022-09-09T02:40:58;94479.81;;;15.03;100.00
9721;BME280;4899;42.644;23.366;2022-09-09T02:43:32;94495.44;;;15.07;100.00
9721;BME280;4899;42.644;23.366;2022-09-09T02:46:04;94478.13;;;14.95;100.00
9721;BME280;4899;42.644;23.366;2022-09-09T02:48:38;94509.38;;;15.02;100.00
9721;BME280;4899;42.644;23.366;2022-09-09T02:51:15;94520.25;;;15.20;100.00
9721;BME280;4899;42.644;23.366;2022-09-09T02:53:50;94508.28;;;15.16;100.00
9721;BME280;4899;42.644;23.366;2022-09-09T02:56:23;94520.06;;;15.13;100.00
9721;BME280;4899;42.644;23.366;2022-09-09T02:58:55;94513.50;;;15.03;100.00
9721;BME280;4899;42.644;23.366;2022-09-09T03:01:22;94491.94;;;14.87;100.00
9721;BME280;4899;42.644;23.366;2022-09-09T03:03:49;94496.91;;;14.92;100.00
9721;BME280;4899;42.644;23.366;2022-09-09T03:06:15;94506.59;;;14.95;100.00
9721;BME280;4899;42.644;23.366;2022-09-09T03:08:42;94516.75;;;15.00;100.00
9721;BME280;4899;42.644;23.366;2022-09-09T03:11:09;94513.50;;;15.03;100.00
9721;BME280;4899;42.644;23.366;2022-09-09T03:13:36;94516.06;;;15.03;100.00
9721;BME280;4899;42.644;23.366;2022-09-09T03:16:05;94523.75;;;15.12;100.00
9721;BME280;4899;42.644;23.366;2022-09-09T03:18:31;94518.66;;;15.16;100.00
9721;BME280;4899;42.644;23.366;2022-09-09T03:20:59;94503.03;;;15.12;100.00
9721;BME280;4899;42.644;23.366;2022-09-09T03:23:26;94496.00;;;15.00;100.00
9721;BME280;4899;42.644;23.366;2022-09-09T03:25:53;94500.84;;;15.14;100.00
9721;BME280;4899;42.644;23.366;2022-09-09T03:28:22;94511.84;;;15.23;100.00
9721;BME280;4899;42.644;23.366;2022-09-09T03:30:59;94513.56;;;15.19;100.00
9721;BME280;4899;42.644;23.366;2022-09-09T03:33:27;94515.75;;;15.17;100.00
9721;BME280;4899;42.644;23.366;2022-09-09T03:35:55;94518.66;;;15.16;100.00
9721;BME280;4899;42.644;23.366;2022-09-09T03:38:22;94485.56;;;14.97;100.00
9721;BME280;4899;42.644;23.366;2022-09-09T03:40:50;94516.50;;;15.18;100.00
9721;BME280;4899;42.644;23.366;2022-09-09T03:43:20;94487.78;;;15.11;100.00
9721;BME280;4899;42.644;23.366;2022-09-09T03:45:48;94509.91;;;15.20;100.00
9721;BME280;4899;42.644;23.366;2022-09-09T03:48:15;94502.63;;;15.26;100.00
9721;BME280;4899;42.644;23.366;2022-09-09T03:50:45;94514.63;;;15.30;100.00
9721;BME280;4899;42.644;23.366;2022-09-09T03:53:13;94491.44;;;15.09;100.00
9721;BME280;4899;42.644;23.366;2022-09-09T03:55:44;94498.13;;;15.11;100.00
9721;BME280;4899;42.644;23.366;2022-09-09T03:58:11;94519.03;;;15.30;100.00
9721;BME280;4899;42.644;23.366;2022-09-09T04:00:39;94523.78;;;15.40;100.00
9721;BME280;4899;42.644;23.366;2022-09-09T04:03:08;94512.53;;;15.36;100.00
9721;BME280;4899;42.644;23.366;2022-09-09T04:05:35;94525.28;;;15.41;100.00
9721;BME280;4899;42.644;23.366;2022-09-09T04:08:06;94529.72;;;15.41;100.00
9721;BME280;4899;42.644;23.366;2022-09-09T04:10:33;94454.38;;;14.81;100.00
9721;BME280;4899;42.644;23.366;2022-09-09T04:13:01;94527.13;;;15.41;100.00
9721;BME280;4899;42.644;23.366;2022-09-09T04:15:28;94524.53;;;15.41;100.00
9721;BME280;4899;42.644;23.366;2022-09-09T04:17:55;94535.59;;;15.53;100.00
9721;BME280;4899;42.644;23.366;2022-09-09T04:20:22;94523.47;;;15.57;100.00
9721;BME280;4899;42.644;23.366;2022-09-09T04:22:49;94513.22;;;15.61;100.00
9721;BME280;4899;42.644;23.366;2022-09-09T04:25:17;94519.38;;;15.56;100.00
9721;BME280;4899;42.644;23.366;2022-09-09T04:27:44;94510.16;;;15.43;100.00
9721;BME280;4899;42.644;23.366;2022-09-09T04:30:11;94485.97;;;15.39;100.00
9721;BME280;4899;42.644;23.366;2022-09-09T04:32:38;94508.91;;;15.53;100.00
9721;BME280;4899;42.644;23.366;2022-09-09T04:35:05;94471.94;;;15.12;100.00
9721;BME280;4899;42.644;23.366;2022-09-09T04:37:32;94529.66;;;15.65;100.00
9721;BME280;4899;42.644;23.366;2022-09-09T04:39:59;94532.00;;;15.58;100.00
9721;BME280;4899;42.644;23.366;2022-09-09T04:42:29;94523.41;;;15.54;100.00
9721;BME280;4899;42.644;23.366;2022-09-09T04:44:55;94536.03;;;15.67;100.00
9721;BME280;4899;42.644;23.366;2022-09-09T04:47:22;94552.47;;;15.59;100.00
9721;BME280;4899;42.644;23.366;2022-09-09T04:49:49;94546.53;;;15.59;100.00
9721;BME280;4899;42.644;23.366;2022-09-09T04:52:17;94490.50;;;15.14;100.00
9721;BME280;4899;42.644;23.366;2022-09-09T04:54:44;94500.66;;;15.35;100.00
9721;BME280;4899;42.644;23.366;2022-09-09T04:57:11;94517.25;;;15.58;100.00
9721;BME280;4899;42.644;23.366;2022-09-09T04:59:39;94512.84;;;15.75;100.00
9721;BME280;4899;42.644;23.366;2022-09-09T05:02:06;94507.50;;;15.67;100.00
9721;BME280;4899;42.644;23.366;2022-09-09T05:04:35;94484.41;;;15.62;100.00
9721;BME280;4899;42.644;23.366;2022-09-09T05:07:02;94510.09;;;15.83;100.00
9721;BME280;4899;42.644;23.366;2022-09-09T05:09:29;94505.53;;;15.92;100.00
9721;BME280;4899;42.644;23.366;2022-09-09T05:11:56;94474.53;;;15.84;100.00
9721;BME280;4899;42.644;23.366;2022-09-09T05:14:23;94500.34;;;16.08;100.00
9721;BME280;4899;42.644;23.366;2022-09-09T05:16:51;94498.41;;;16.05;100.00
9721;BME280;4899;42.644;23.366;2022-09-09T05:19:18;94510.41;;;16.25;100.00
9721;BME280;4899;42.644;23.366;2022-09-09T05:21:45;94515.53;;;16.22;100.00
9721;BME280;4899;42.644;23.366;2022-09-09T05:24:12;94510.75;;;16.40;100.00
9721;BME280;4899;42.644;23.366;2022-09-09T05:26:39;94507.97;;;16.48;100.00
9721;BME280;4899;42.644;23.366;2022-09-09T05:29:05;94504.09;;;16.58;100.00
9721;BME280;4899;42.644;23.366;2022-09-09T05:31:33;94501.44;;;16.70;100.00
9721;BME280;4899;42.644;23.366;2022-09-09T05:34:02;94504.28;;;16.81;100.00
9721;BME280;4899;42.644;23.366;2022-09-09T05:36:28;94502.75;;;16.96;100.00
9721;BME280;4899;42.644;23.366;2022-09-09T05:38:55;94484.81;;;16.90;100.00
9721;BME280;4899;42.644;23.366;2022-09-09T05:41:22;94414.13;;;16.66;100.00
9721;BME280;4899;42.644;23.366;2022-09-09T05:43:49;94505.38;;;17.34;100.00
9721;BME280;4899;42.644;23.366;2022-09-09T05:46:18;94496.69;;;17.46;100.00
9721;BME280;4899;42.644;23.366;2022-09-09T05:48:46;94516.25;;;17.59;100.00
9721;BME280;4899;42.644;23.366;2022-09-09T05:51:20;94523.13;;;17.67;100.00
9721;BME280;4899;42.644;23.366;2022-09-09T05:53:48;94513.19;;;17.73;100.00
9721;BME280;4899;42.644;23.366;2022-09-09T05:56:17;94502.84;;;17.76;100.00
9721;BME280;4899;42.644;23.366;2022-09-09T05:58:45;94504.25;;;17.93;100.00
9721;BME280;4899;42.644;23.366;2022-09-09T06:01:14;94526.41;;;18.06;100.00
9721;BME280;4899;42.644;23.366;2022-09-09T06:03:43;94518.00;;;18.13;100.00
9721;BME280;4899;42.644;23.366;2022-09-09T06:06:12;94513.88;;;18.12;100.00
9721;BME280;4899;42.644;23.366;2022-09-09T06:08:41;94539.75;;;18.24;100.00
9721;BME280;4899;42.644;23.366;2022-09-09T06:11:10;94535.28;;;18.25;100.00
9721;BME280;4899;42.644;23.366;2022-09-09T06:13:38;94533.84;;;18.27;100.00
9721;BME280;4899;42.644;23.366;2022-09-09T06:16:05;94538.28;;;18.27;100.00
9721;BME280;4899;42.644;23.366;2022-09-09T06:18:33;94536.97;;;18.36;100.00
9721;BME280;4899;42.644;23.366;2022-09-09T06:21:01;94542.66;;;18.42;100.00
9721;BME280;4899;42.644;23.366;2022-09-09T06:23:29;94520.59;;;18.36;100.00
9721;BME280;4899;42.644;23.366;2022-09-09T06:26:06;94514.75;;;18.42;100.00
9721;BME280;4899;42.644;23.366;2022-09-09T06:28:33;94538.97;;;18.66;100.00
9721;BME280;4899;42.644;23.366;2022-09-09T06:31:02;94539.84;;;18.77;100.00
9721;BME280;4899;42.644;23.366;2022-09-09T06:33:32;94538.91;;;18.89;100.00
9721;BME280;4899;42.644;23.366;2022-09-09T06:36:01;94496.69;;;18.80;100.00
9721;BME280;4899;42.644;23.366;2022-09-09T06:38:29;94527.59;;;19.08;100.00
9721;BME280;4899;42.644;23.366;2022-09-09T06:40:57;94515.69;;;19.06;100.00
9721;BME280;4899;42.644;23.366;2022-09-09T06:43:26;94519.16;;;19.14;100.00
9721;BME280;4899;42.644;23.366;2022-09-09T06:45:54;94509.91;;;19.20;100.00
9721;BME280;4899;42.644;23.366;2022-09-09T06:48:21;94515.91;;;19.24;100.00
9721;BME280;4899;42.644;23.366;2022-09-09T06:50:48;94522.78;;;19.36;100.00
9721;BME280;4899;42.644;23.366;2022-09-09T06:53:16;94527.31;;;19.43;100.00
9721;BME280;4899;42.644;23.366;2022-09-09T06:55:44;94543.75;;;19.47;100.00
9721;BME280;4899;42.644;23.366;2022-09-09T06:58:11;94535.78;;;19.62;100.00
9721;BME280;4899;42.644;23.366;2022-09-09T07:00:39;94523.28;;;19.49;100.00
9721;BME280;4899;42.644;23.366;2022-09-09T07:03:06;94532.03;;;19.60;100.00
9721;BME280;4899;42.644;23.366;2022-09-09T07:05:33;94547.50;;;19.79;100.00
9721;BME280;4899;42.644;23.366;2022-09-09T07:08:00;94541.28;;;19.87;100.00
9721;BME280;4899;42.644;23.366;2022-09-09T07:10:27;94548.13;;;20.03;100.00
9721;BME280;4899;42.644;23.366;2022-09-09T07:12:54;94535.44;;;20.01;100.00
9721;BME280;4899;42.644;23.366;2022-09-09T07:15:21;94542.78;;;20.29;100.00
9721;BME280;4899;42.644;23.366;2022-09-09T07:17:49;94536.22;;;20.42;100.00
9721;BME280;4899;42.644;23.366;2022-09-09T07:20:16;94547.19;;;20.58;100.00
9721;BME280;4899;42.644;23.366;2022-09-09T07:22:43;94541.25;;;20.65;100.00
9721;BME280;4899;42.644;23.366;2022-09-09T07:25:09;94549.16;;;20.76;100.00
9721;BME280;4899;42.644;23.366;2022-09-09T07:27:36;94535.44;;;20.86;100.00
9721;BME280;4899;42.644;23.366;2022-09-09T07:30:04;94536.56;;;20.92;100.00
9721;BME280;4899;42.644;23.366;2022-09-09T07:32:31;94540.78;;;21.07;100.00
9721;BME280;4899;42.644;23.366;2022-09-09T07:35:00;94526.63;;;21.15;100.00
9721;BME280;4899;42.644;23.366;2022-09-09T07:37:26;94531.19;;;21.26;100.00
9721;BME280;4899;42.644;23.366;2022-09-09T07:39:53;94516.91;;;21.19;100.00
9721;BME280;4899;42.644;23.366;2022-09-09T07:42:20;94487.69;;;21.03;100.00
9721;BME280;4899;42.644;23.366;2022-09-09T07:44:47;94543.31;;;21.59;100.00
9721;BME280;4899;42.644;23.366;2022-09-09T07:47:14;94532.78;;;21.52;100.00
9721;BME280;4899;42.644;23.366;2022-09-09T07:49:40;94542.22;;;21.74;100.00
9721;BME280;4899;42.644;23.366;2022-09-09T07:52:09;94540.41;;;21.96;100.00
9721;BME280;4899;42.644;23.366;2022-09-09T07:54:36;94544.59;;;22.11;100.00
9721;BME280;4899;42.644;23.366;2022-09-09T07:57:03;94538.25;;;22.23;100.00
9721;BME280;4899;42.644;23.366;2022-09-09T07:59:30;94533.38;;;22.50;100.00
9721;BME280;4899;42.644;23.366;2022-09-09T08:01:56;94545.00;;;22.81;100.00
9721;BME280;4899;42.644;23.366;2022-09-09T08:04:24;94513.88;;;23.00;100.00
9721;BME280;4899;42.644;23.366;2022-09-09T08:06:54;94538.16;;;23.40;98.60
9721;BME280;4899;42.644;23.366;2022-09-09T08:09:24;94541.09;;;23.67;97.94
9721;BME280;4899;42.644;23.366;2022-09-09T08:11:54;94535.47;;;23.61;97.66
9721;BME280;4899;42.644;23.366;2022-09-09T08:14:22;94545.59;;;23.67;92.31
9721;BME280;4899;42.644;23.366;2022-09-09T08:16:50;94540.75;;;23.61;97.36
9721;BME280;4899;42.644;23.366;2022-09-09T08:19:19;94539.16;;;23.82;95.82
9721;BME280;4899;42.644;23.366;2022-09-09T08:21:45;94522.84;;;24.08;90.84
9721;BME280;4899;42.644;23.366;2022-09-09T08:24:14;94527.59;;;24.35;88.45
9721;BME280;4899;42.644;23.366;2022-09-09T08:26:45;94545.78;;;24.63;85.19
9721;BME280;4899;42.644;23.366;2022-09-09T08:29:13;94521.59;;;24.79;81.72
9721;BME280;4899;42.644;23.366;2022-09-09T08:31:41;94542.22;;;25.25;77.41
9721;BME280;4899;42.644;23.366;2022-09-09T08:34:09;94544.56;;;25.50;81.70
9721;BME280;4899;42.644;23.366;2022-09-09T08:36:37;94545.69;;;25.53;77.08
9721;BME280;4899;42.644;23.366;2022-09-09T08:39:06;94545.84;;;25.72;72.83
9721;BME280;4899;42.644;23.366;2022-09-09T08:41:46;94546.09;;;25.85;71.61
9721;BME280;4899;42.644;23.366;2022-09-09T08:44:23;94539.13;;;25.98;71.30
9721;BME280;4899;42.644;23.366;2022-09-09T08:46:57;94523.56;;;25.77;72.20
9721;BME280;4899;42.644;23.366;2022-09-09T08:49:48;94539.56;;;25.93;74.40
9721;BME280;4899;42.644;23.366;2022-09-09T08:52:22;94535.25;;;26.06;71.95
9721;BME280;4899;42.644;23.366;2022-09-09T08:54:51;94526.31;;;26.24;69.94
9721;BME280;4899;42.644;23.366;2022-09-09T08:57:23;94528.13;;;26.57;69.36
9721;BME280;4899;42.644;23.366;2022-09-09T08:59:54;94530.16;;;26.93;69.23
9721;BME280;4899;42.644;23.366;2022-09-09T09:02:25;94532.53;;;26.87;69.13
9721;BME280;4899;42.644;23.366;2022-09-09T09:05:06;94531.50;;;27.05;69.25
9721;BME280;4899;42.644;23.366;2022-09-09T09:07:51;94527.44;;;27.20;65.06
9721;BME280;4899;42.644;23.366;2022-09-09T09:10:32;94534.97;;;27.21;65.72
9721;BME280;4899;42.644;23.366;2022-09-09T09:13:01;94541.94;;;27.12;64.80
9721;BME280;4899;42.644;23.366;2022-09-09T09:15:31;94525.28;;;26.91;64.74
9721;BME280;4899;42.644;23.366;2022-09-09T09:18:02;94535.84;;;27.15;68.14
9721;BME280;4899;42.644;23.366;2022-09-09T09:20:34;94535.09;;;27.14;69.52
9721;BME280;4899;42.644;23.366;2022-09-09T09:23:05;94532.25;;;27.25;72.01
9721;BME280;4899;42.644;23.366;2022-09-09T09:25:35;94522.84;;;27.24;75.91
9721;BME280;4899;42.644;23.366;2022-09-09T09:28:13;94516.59;;;27.14;73.73
9721;BME280;4899;42.644;23.366;2022-09-09T09:30:45;94520.06;;;27.11;67.24
9721;BME280;4899;42.644;23.366;2022-09-09T09:33:17;94525.88;;;26.79;66.59
9721;BME280;4899;42.644;23.366;2022-09-09T09:35:46;94519.75;;;26.62;67.88
9721;BME280;4899;42.644;23.366;2022-09-09T09:38:17;94528.66;;;26.92;68.38
9721;BME280;4899;42.644;23.366;2022-09-09T09:40:49;94508.63;;;26.94;71.02
9721;BME280;4899;42.644;23.366;2022-09-09T09:43:21;94527.38;;;27.23;64.58
9721;BME280;4899;42.644;23.366;2022-09-09T09:45:50;94518.72;;;27.43;64.17
9721;BME280;4899;42.644;23.366;2022-09-09T09:48:17;94503.34;;;27.94;62.95
9721;BME280;4899;42.644;23.366;2022-09-09T09:50:48;94500.09;;;28.38;63.82
9721;BME280;4899;42.644;23.366;2022-09-09T09:53:24;94488.84;;;28.51;62.16
9721;BME280;4899;42.644;23.366;2022-09-09T09:55:55;94504.91;;;28.27;60.47
9721;BME280;4899;42.644;23.366;2022-09-09T09:58:26;94502.22;;;28.11;60.17
9721;BME280;4899;42.644;23.366;2022-09-09T10:00:55;94501.06;;;28.12;60.17
9721;BME280;4899;42.644;23.366;2022-09-09T10:03:25;94495.19;;;28.20;59.56
9721;BME280;4899;42.644;23.366;2022-09-09T10:05:52;94499.63;;;28.27;59.20
9721;BME280;4899;42.644;23.366;2022-09-09T10:08:22;94487.50;;;28.10;62.48
9721;BME280;4899;42.644;23.366;2022-09-09T10:10:59;94498.84;;;27.74;62.27
9721;BME280;4899;42.644;23.366;2022-09-09T10:13:36;94503.56;;;27.27;63.32
9721;BME280;4899;42.644;23.366;2022-09-09T10:16:17;94501.22;;;27.09;63.30
9721;BME280;4899;42.644;23.366;2022-09-09T10:18:58;94511.81;;;26.86;64.87
9721;BME280;4899;42.644;23.366;2022-09-09T10:21:40;94500.47;;;26.65;65.58
9721;BME280;4899;42.644;23.366;2022-09-09T10:27:15;94498.72;;;26.32;75.40
9721;BME280;4899;42.644;23.366;2022-09-09T10:29:56;94504.19;;;26.45;76.79
9721;BME280;4899;42.644;23.366;2022-09-09T10:32:46;94509.34;;;26.52;75.57
9721;BME280;4899;42.644;23.366;2022-09-09T10:35:26;94509.81;;;26.47;74.94
9721;BME280;4899;42.644;23.366;2022-09-09T10:38:10;94513.06;;;26.31;72.73
9721;BME280;4899;42.644;23.366;2022-09-09T10:40:43;94510.47;;;26.27;76.95
9721;BME280;4899;42.644;23.366;2022-09-09T10:43:28;94509.81;;;26.20;74.23
9721;BME280;4899;42.644;23.366;2022-09-09T10:46:04;94484.25;;;25.90;74.57
9721;BME280;4899;42.644;23.366;2022-09-09T10:48:42;94509.22;;;26.09;73.58
9721;BME280;4899;42.644;23.366;2022-09-09T10:51:22;94514.09;;;26.10;75.13
9721;BME280;4899;42.644;23.366;2022-09-09T10:54:08;94505.09;;;26.08;74.95
9721;BME280;4899;42.644;23.366;2022-09-09T10:56:44;94509.06;;;26.19;74.50
9721;BME280;4899;42.644;23.366;2022-09-09T10:59:19;94506.59;;;26.09;76.82
9721;BME280;4899;42.644;23.366;2022-09-09T11:01:55;94513.59;;;26.19;75.71
9721;BME280;4899;42.644;23.366;2022-09-09T11:04:27;94518.53;;;26.17;80.97
9721;BME280;4899;42.644;23.366;2022-09-09T11:07:00;94509.47;;;26.18;78.10
9721;BME280;4899;42.644;23.366;2022-09-09T11:09:33;94519.22;;;26.21;79.27
9721;BME280;4899;42.644;23.366;2022-09-09T11:12:02;94510.22;;;26.18;78.63
9721;BME280;4899;42.644;23.366;2022-09-09T11:14:32;94513.00;;;26.08;76.87
9721;BME280;4899;42.644;23.366;2022-09-09T11:17:06;94516.44;;;26.04;81.18
9721;BME280;4899;42.644;23.366;2022-09-09T11:19:39;94497.72;;;25.95;80.81
9721;BME280;4899;42.644;23.366;2022-09-09T11:22:12;94488.59;;;26.03;75.47
9721;BME280;4899;42.644;23.366;2022-09-09T11:24:46;94501.75;;;26.30;73.48
9721;BME280;4899;42.644;23.366;2022-09-09T11:27:19;94495.06;;;26.49;74.74
9721;BME280;4899;42.644;23.366;2022-09-09T11:30:20;94496.66;;;26.66;73.31
9721;BME280;4899;42.644;23.366;2022-09-09T11:32:57;94484.72;;;26.82;72.08
9721;BME280;4899;42.644;23.366;2022-09-09T11:35:33;94465.44;;;26.85;70.65
9721;BME280;4899;42.644;23.366;2022-09-09T11:38:16;94473.59;;;27.14;72.06
9721;BME280;4899;42.644;23.366;2022-09-09T11:40:45;94437.16;;;27.05;71.35
9721;BME280;4899;42.644;23.366;2022-09-09T11:43:21;94466.19;;;27.25;69.50
9721;BME280;4899;42.644;23.366;2022-09-09T11:45:52;94426.50;;;26.89;70.56
9721;BME280;4899;42.644;23.366;2022-09-09T11:48:28;94453.41;;;27.23;71.99
9721;BME280;4899;42.644;23.366;2022-09-09T11:51:01;94444.47;;;27.37;71.43
9721;BME280;4899;42.644;23.366;2022-09-09T11:53:29;94426.53;;;27.65;68.31
9721;BME280;4899;42.644;23.366;2022-09-09T11:56:09;94421.69;;;27.79;66.55
9721;BME280;4899;42.644;23.366;2022-09-09T11:58:39;94411.75;;;28.00;67.32
9721;BME280;4899;42.644;23.366;2022-09-09T12:01:27;94415.06;;;28.20;65.99
9721;BME280;4899;42.644;23.366;2022-09-09T12:04:05;94430.94;;;28.20;64.73
9721;BME280;4899;42.644;23.366;2022-09-09T12:06:42;94438.75;;;28.27;65.09
9721;BME280;4899;42.644;23.366;2022-09-09T12:09:19;94419.94;;;28.38;67.85
9721;BME280;4899;42.644;23.366;2022-09-09T12:11:48;94413.97;;;28.50;65.59
9721;BME280;4899;42.644;23.366;2022-09-09T12:14:34;94434.19;;;28.73;63.20
9721;BME280;4899;42.644;23.366;2022-09-09T12:17:10;94435.44;;;28.68;65.74
9721;BME280;4899;42.644;23.366;2022-09-09T12:19:46;94424.63;;;28.92;63.42
9721;BME280;4899;42.644;23.366;2022-09-09T12:22:20;94428.63;;;29.13;62.91
9721;BME280;4899;42.644;23.366;2022-09-09T12:24:56;94419.34;;;29.33;60.37
9721;BME280;4899;42.644;23.366;2022-09-09T12:27:29;94417.69;;;29.52;60.24
9721;BME280;4899;42.644;23.366;2022-09-09T12:30:02;94424.91;;;29.52;60.08
9721;BME280;4899;42.644;23.366;2022-09-09T12:32:31;94417.13;;;29.45;59.98
9721;BME280;4899;42.644;23.366;2022-09-09T12:35:02;94408.75;;;29.71;59.57
9721;BME280;4899;42.644;23.366;2022-09-09T12:37:34;94401.66;;;30.07;58.74
9721;BME280;4899;42.644;23.366;2022-09-09T12:40:04;94392.63;;;29.66;57.20
9721;BME280;4899;42.644;23.366;2022-09-09T12:42:32;94401.56;;;29.59;58.78
9721;BME280;4899;42.644;23.366;2022-09-09T12:45:00;94393.34;;;29.28;59.55
9721;BME280;4899;42.644;23.366;2022-09-09T12:47:37;94323.69;;;28.73;59.80
9721;BME280;4899;42.644;23.366;2022-09-09T12:50:15;94407.31;;;29.16;61.04
9721;BME280;4899;42.644;23.366;2022-09-09T12:52:43;94397.22;;;28.98;60.36
9721;BME280;4899;42.644;23.366;2022-09-09T12:55:16;94391.84;;;29.02;60.34
9721;BME280;4899;42.644;23.366;2022-09-09T12:57:44;94390.69;;;29.41;58.51
9721;BME280;4899;42.644;23.366;2022-09-09T13:00:15;94388.03;;;30.52;55.94
9721;BME280;4899;42.644;23.366;2022-09-09T13:02:48;94376.81;;;31.85;53.11
9721;BME280;4899;42.644;23.366;2022-09-09T13:05:20;94376.59;;;32.65;50.98
9721;BME280;4899;42.644;23.366;2022-09-09T13:07:48;94386.25;;;32.81;48.90
9721;BME280;4899;42.644;23.366;2022-09-09T13:10:20;94371.13;;;32.87;48.87
9721;BME280;4899;42.644;23.366;2022-09-09T13:12:49;94381.19;;;32.64;47.99
9721;BME280;4899;42.644;23.366;2022-09-09T13:15:21;94380.28;;;32.12;50.30
9721;BME280;4899;42.644;23.366;2022-09-09T13:17:53;94371.25;;;31.61;49.95
9721;BME280;4899;42.644;23.366;2022-09-09T13:20:23;94367.41;;;31.62;50.60
9721;BME280;4899;42.644;23.366;2022-09-09T13:22:51;94348.13;;;31.39;50.03
9721;BME280;4899;42.644;23.366;2022-09-09T13:25:22;94353.16;;;31.37;51.15
9721;BME280;4899;42.644;23.366;2022-09-09T13:27:55;94350.72;;;31.21;51.00